Relevés horaires Elsenborn (Belgique)


Relevés horaires à Elsenborn - Samedi 08 Févr. 2020
Heure UTC1 Température [°C] Vent [km/h] Hum. [%] Pres.4 [hPa] Visi. [Km] Nébu. [octa] Préc.5 [mm] Cond.
2m. Res. Ros. Dir.2 Vit. Moy. Raf.3
23:00 4.0 2.7 3.0 S 5.6 -- 9.3 93 1021.3(-1.0/3h) 10 -- -- NA
22:00 3.7 3.7 2.8 SO 3.7 -- 11.1 94 1022.2(-0.2/3h) 8 -- -- NA
21:00 3.9 3.9 2.3 SSO 3.7 -- 11.1 89 1022.7(0.2/3h) 12 -- -- --
20:00 3.7 2.4 2.0 SSO 5.6 -- 9.3 89 1022.5(0.3/3h) 13 -- -- --
19:00 3.7 3.7 1.7 SSO 3.7 -- 11.1 87 1022.6(0.6/3h) 13 -- -- --
18:00 3.7 2.4 1.6 SSO 5.6 -- 13.0 86 1022.3(0.8/3h) 14 -- -- --
17:00 4.0 2.7 1.7 S 5.6 -- 11.1 85 1022.1(0.3/3h) 16 -- -- --
16:00 4.5 2.7 1.9 S 7.4 -- 13.0 83 1021.7(-0.4/3h) 16 -- -- --
15:00 5.0 3.3 2.0 S 7.4 -- 13.0 81 1021.2(-1.0/3h) 18 -- -- --
14:00 5.0 5.0 1.8 SSO 3.7 -- 11.1 80 1021.5(-0.9/3h) 19 -- -- --
13:00 4.5 2.7 1.4 SSO 7.4 -- 13.0 80 1022.1(-0.5/3h) 17 -- -- --
12:00 4.5 4.5 1.4 SSO 3.7 -- 13.0 80 1022.5(-0.1/3h) 15 -- -- NA
11:00 3.7 2.4 0.9 SSO 5.6 -- 13.0 82 1022.8(0.1/3h) 14 -- -- --
10:00 2.9 2.9 0.7 SO 3.7 -- 9.3 85 1023.1(0.4/3h) 11 -- -- --
09:00 2.2 2.2 0.3 SO 3.7 -- 7.4 87 1023.2(0.3/3h) 9 -- -- NA
08:00 1.2 1.2 -0.4 NNO 3.7 -- 7.4 89 1023.3(0.6/3h) 9 -- -- NA
07:00 1.1 1.1 -1.2 NNO 1.9 -- 7.4 85 1023.1(0.0/3h) 11 -- -- --
06:00 0.6 0.6 -1.7 NNO 1.9 -- 13.0 85 1023.2(0.0/3h) 9 -- -- --
05:00 0.1 0.1 -2.4 NNO 3.7 -- 5.6 83 1023(-0.5/3h) 10 -- -- --
04:00 -0.2 -0.2 -2.9 NNO 1.9 -- 7.4 82 1023.3(0.0/3h) 11 -- -- --
03:00 -0.2 -0.2 -3.2 SSO 3.7 -- 13.0 80 1023.5(-0.1/3h) 11 -- -- --
02:00 -0.4 -0.4 -3.7 NNO 1.9 -- 13.0 78 1023.7(0.1/3h) 13 -- -- --
01:00 0.1 -1.7 -3.8 S 5.6 -- 9.3 75 1023.2(-0.3/3h) 16 -- -- --
00:00 0.3 0.3 -4.2 SSO 3.7 -- 18.5 72 1023.6(-0.2/3h) 19 -- -- --

1 Coordinated Universal Time. Actuellement il est 14:00 locale et 12:00 UTC.

2 Le vent souffle depuis la direction indiquée vers la direction oposée.

3 Les rafales max. sont disponible 40 min après l'heure du relevé.

4 Pour les stations d'altitude (plus de 600m) le géopotentiel du niveau le plus proche de la pression obligatoire est indiqué.

5 Les stations disposant d'un diffuseur peuvent indiquer "trace". Cela signifie que des précipitations ont touchés le sol mais que la quantité est inférieure à 0.1 mm.

Récapitulatif de la journée
Température [°C] Vent [km/h] Ensoleillement4 [h] Precipitations totale5 [mm] Pression [Hpa]
Min1 Max.2 Moy.3 Max. Min Max.
-0.5 5.1 0 18.5 0 h 0 min 0 1021.2 1023.7

1 Température minimale relevée entre 18:00 UTC la veille et 18:00 UTC le jour donné.

2 Température maximale relevée entre 06:00 UTC le jour donné et 06:00 UTC le lendemain.

3 Vent moyen de la journée basé sur les relevés horaires.

4 Ensoleillement en heures relevé entre 06:00 UTC la veille et 06:00 UTC le jour donné.

5 Précipitations totales tombées entre 06:00 UTC la jour donné et 06:00 UTC le lendemain.

Graphiques horaires